sensor_id;sensor_type;location;lat;lon;timestamp;P1;durP1;ratioP1;P2;durP2;ratioP2
43118;SDS011;28729;49.838;8.650;2022-08-21T00:01:24;10.07;;;4.97;;
43118;SDS011;28729;49.838;8.650;2022-08-21T00:05:30;7.90;;;5.00;;
43118;SDS011;28729;49.838;8.650;2022-08-21T00:09:33;8.43;;;4.93;;
43118;SDS011;28729;49.838;8.650;2022-08-21T00:13:35;7.68;;;4.28;;
43118;SDS011;28729;49.838;8.650;2022-08-21T00:17:37;10.70;;;5.47;;
43118;SDS011;28729;49.838;8.650;2022-08-21T00:21:39;10.52;;;4.70;;
43118;SDS011;28729;49.838;8.650;2022-08-21T00:25:45;7.68;;;4.70;;
43118;SDS011;28729;49.838;8.650;2022-08-21T00:29:46;8.60;;;4.80;;
43118;SDS011;28729;49.838;8.650;2022-08-21T00:33:48;8.77;;;5.30;;
43118;SDS011;28729;49.838;8.650;2022-08-21T00:37:50;9.57;;;4.50;;
43118;SDS011;28729;49.838;8.650;2022-08-21T00:41:51;7.18;;;4.40;;
43118;SDS011;28729;49.838;8.650;2022-08-21T00:45:53;10.15;;;4.88;;
43118;SDS011;28729;49.838;8.650;2022-08-21T00:49:55;9.18;;;4.75;;
43118;SDS011;28729;49.838;8.650;2022-08-21T00:53:57;9.33;;;5.10;;
43118;SDS011;28729;49.838;8.650;2022-08-21T00:58:04;8.95;;;4.63;;
43118;SDS011;28729;49.838;8.650;2022-08-21T01:02:09;10.75;;;4.70;;
43118;SDS011;28729;49.838;8.650;2022-08-21T01:06:11;9.20;;;4.50;;
43118;SDS011;28729;49.838;8.650;2022-08-21T01:10:13;8.48;;;4.70;;
43118;SDS011;28729;49.838;8.650;2022-08-21T01:14:24;7.38;;;4.53;;
43118;SDS011;28729;49.838;8.650;2022-08-21T01:18:26;11.70;;;4.85;;
43118;SDS011;28729;49.838;8.650;2022-08-21T01:22:28;7.85;;;4.43;;
43118;SDS011;28729;49.838;8.650;2022-08-21T01:26:31;9.45;;;4.47;;
43118;SDS011;28729;49.838;8.650;2022-08-21T01:30:36;10.75;;;4.30;;
43118;SDS011;28729;49.838;8.650;2022-08-21T01:38:43;10.55;;;4.78;;
43118;SDS011;28729;49.838;8.650;2022-08-21T01:42:46;11.02;;;4.82;;
43118;SDS011;28729;49.838;8.650;2022-08-21T01:46:48;10.13;;;4.50;;
43118;SDS011;28729;49.838;8.650;2022-08-21T01:50:50;10.15;;;4.55;;
43118;SDS011;28729;49.838;8.650;2022-08-21T01:54:57;9.68;;;4.55;;
43118;SDS011;28729;49.838;8.650;2022-08-21T01:58:58;11.05;;;5.15;;
43118;SDS011;28729;49.838;8.650;2022-08-21T02:03:00;8.10;;;4.28;;
43118;SDS011;28729;49.838;8.650;2022-08-21T02:07:02;9.65;;;4.95;;
43118;SDS011;28729;49.838;8.650;2022-08-21T02:11:08;8.95;;;4.63;;
43118;SDS011;28729;49.838;8.650;2022-08-21T02:15:10;11.63;;;4.93;;
43118;SDS011;28729;49.838;8.650;2022-08-21T02:19:13;8.45;;;4.55;;
43118;SDS011;28729;49.838;8.650;2022-08-21T02:23:15;7.43;;;4.70;;
43118;SDS011;28729;49.838;8.650;2022-08-21T02:27:20;8.10;;;4.07;;
43118;SDS011;28729;49.838;8.650;2022-08-21T02:31:27;8.45;;;4.18;;
43118;SDS011;28729;49.838;8.650;2022-08-21T02:35:29;10.52;;;5.30;;
43118;SDS011;28729;49.838;8.650;2022-08-21T02:39:30;8.98;;;4.55;;
43118;SDS011;28729;49.838;8.650;2022-08-21T02:43:32;12.32;;;5.00;;
43118;SDS011;28729;49.838;8.650;2022-08-21T02:47:33;8.90;;;4.60;;
43118;SDS011;28729;49.838;8.650;2022-08-21T02:51:35;9.23;;;4.47;;
43118;SDS011;28729;49.838;8.650;2022-08-21T02:55:37;7.50;;;4.05;;
43118;SDS011;28729;49.838;8.650;2022-08-21T02:59:40;12.15;;;4.85;;
43118;SDS011;28729;49.838;8.650;2022-08-21T03:03:42;11.93;;;4.43;;
43118;SDS011;28729;49.838;8.650;2022-08-21T03:07:46;14.13;;;4.53;;
43118;SDS011;28729;49.838;8.650;2022-08-21T03:11:49;10.25;;;5.00;;
43118;SDS011;28729;49.838;8.650;2022-08-21T03:15:52;13.63;;;5.05;;
43118;SDS011;28729;49.838;8.650;2022-08-21T03:19:54;7.80;;;4.50;;
43118;SDS011;28729;49.838;8.650;2022-08-21T03:23:55;10.07;;;4.25;;
43118;SDS011;28729;49.838;8.650;2022-08-21T03:27:57;9.75;;;5.10;;
43118;SDS011;28729;49.838;8.650;2022-08-21T03:36:03;11.10;;;4.97;;
43118;SDS011;28729;49.838;8.650;2022-08-21T03:40:08;9.80;;;4.70;;
43118;SDS011;28729;49.838;8.650;2022-08-21T03:44:11;14.68;;;4.57;;
43118;SDS011;28729;49.838;8.650;2022-08-21T03:48:13;9.20;;;4.72;;
43118;SDS011;28729;49.838;8.650;2022-08-21T03:52:15;8.83;;;5.00;;
43118;SDS011;28729;49.838;8.650;2022-08-21T04:00:20;9.63;;;4.75;;
43118;SDS011;28729;49.838;8.650;2022-08-21T04:04:27;10.70;;;5.03;;
43118;SDS011;28729;49.838;8.650;2022-08-21T04:08:29;9.60;;;4.82;;
43118;SDS011;28729;49.838;8.650;2022-08-21T04:12:33;11.98;;;4.57;;
43118;SDS011;28729;49.838;8.650;2022-08-21T04:16:35;9.85;;;5.40;;
43118;SDS011;28729;49.838;8.650;2022-08-21T04:20:38;9.88;;;5.25;;
43118;SDS011;28729;49.838;8.650;2022-08-21T04:24:50;11.80;;;5.32;;
43118;SDS011;28729;49.838;8.650;2022-08-21T04:28:51;9.77;;;5.35;;
43118;SDS011;28729;49.838;8.650;2022-08-21T04:32:53;11.68;;;4.93;;
43118;SDS011;28729;49.838;8.650;2022-08-21T04:36:56;8.80;;;5.68;;
43118;SDS011;28729;49.838;8.650;2022-08-21T04:40:58;7.47;;;5.18;;
43118;SDS011;28729;49.838;8.650;2022-08-21T04:44:59;11.32;;;4.82;;
43118;SDS011;28729;49.838;8.650;2022-08-21T04:49:02;8.10;;;5.23;;
43118;SDS011;28729;49.838;8.650;2022-08-21T04:53:05;13.10;;;5.10;;
43118;SDS011;28729;49.838;8.650;2022-08-21T04:57:09;8.02;;;4.65;;
43118;SDS011;28729;49.838;8.650;2022-08-21T05:01:13;10.85;;;5.25;;
43118;SDS011;28729;49.838;8.650;2022-08-21T05:05:19;11.77;;;5.15;;
43118;SDS011;28729;49.838;8.650;2022-08-21T05:09:21;9.97;;;4.77;;
43118;SDS011;28729;49.838;8.650;2022-08-21T05:13:24;13.20;;;5.25;;
43118;SDS011;28729;49.838;8.650;2022-08-21T05:17:26;9.32;;;5.30;;
43118;SDS011;28729;49.838;8.650;2022-08-21T05:21:28;10.27;;;5.00;;
43118;SDS011;28729;49.838;8.650;2022-08-21T05:25:29;10.52;;;4.63;;
43118;SDS011;28729;49.838;8.650;2022-08-21T05:29:31;9.98;;;4.93;;
43118;SDS011;28729;49.838;8.650;2022-08-21T05:33:32;10.55;;;4.90;;
43118;SDS011;28729;49.838;8.650;2022-08-21T05:37:36;8.05;;;5.20;;
43118;SDS011;28729;49.838;8.650;2022-08-21T05:41:37;7.30;;;4.45;;
43118;SDS011;28729;49.838;8.650;2022-08-21T05:45:40;8.93;;;4.90;;
43118;SDS011;28729;49.838;8.650;2022-08-21T05:49:44;12.07;;;5.00;;
43118;SDS011;28729;49.838;8.650;2022-08-21T05:53:46;6.93;;;4.30;;
43118;SDS011;28729;49.838;8.650;2022-08-21T05:57:48;8.90;;;4.80;;
43118;SDS011;28729;49.838;8.650;2022-08-21T06:01:51;8.73;;;4.53;;
43118;SDS011;28729;49.838;8.650;2022-08-21T06:09:56;7.10;;;4.07;;
43118;SDS011;28729;49.838;8.650;2022-08-21T06:13:58;9.55;;;4.85;;
43118;SDS011;28729;49.838;8.650;2022-08-21T06:18:00;12.82;;;4.57;;
43118;SDS011;28729;49.838;8.650;2022-08-21T06:22:02;11.95;;;4.72;;
43118;SDS011;28729;49.838;8.650;2022-08-21T06:26:05;14.10;;;4.83;;
43118;SDS011;28729;49.838;8.650;2022-08-21T06:30:08;10.60;;;4.60;;
43118;SDS011;28729;49.838;8.650;2022-08-21T06:34:10;7.63;;;4.03;;
43118;SDS011;28729;49.838;8.650;2022-08-21T06:38:12;11.02;;;4.63;;
43118;SDS011;28729;49.838;8.650;2022-08-21T06:42:14;7.38;;;3.63;;
43118;SDS011;28729;49.838;8.650;2022-08-21T06:46:18;13.65;;;5.07;;
43118;SDS011;28729;49.838;8.650;2022-08-21T06:50:19;8.93;;;3.80;;
43118;SDS011;28729;49.838;8.650;2022-08-21T06:54:23;11.02;;;4.32;;
43118;SDS011;28729;49.838;8.650;2022-08-21T06:58:29;10.77;;;4.63;;
43118;SDS011;28729;49.838;8.650;2022-08-21T07:02:31;9.63;;;5.18;;
43118;SDS011;28729;49.838;8.650;2022-08-21T07:06:34;9.80;;;4.53;;
43118;SDS011;28729;49.838;8.650;2022-08-21T07:10:36;8.63;;;4.28;;
43118;SDS011;28729;49.838;8.650;2022-08-21T07:14:41;11.27;;;5.35;;
43118;SDS011;28729;49.838;8.650;2022-08-21T07:18:44;11.73;;;4.95;;
43118;SDS011;28729;49.838;8.650;2022-08-21T07:22:45;9.88;;;5.20;;
43118;SDS011;28729;49.838;8.650;2022-08-21T07:26:47;12.88;;;5.32;;
43118;SDS011;28729;49.838;8.650;2022-08-21T07:30:53;10.87;;;5.10;;
43118;SDS011;28729;49.838;8.650;2022-08-21T07:34:57;10.70;;;5.05;;
43118;SDS011;28729;49.838;8.650;2022-08-21T07:38:58;9.35;;;5.07;;
43118;SDS011;28729;49.838;8.650;2022-08-21T07:43:00;10.63;;;5.18;;
43118;SDS011;28729;49.838;8.650;2022-08-21T07:47:02;12.48;;;5.55;;
43118;SDS011;28729;49.838;8.650;2022-08-21T07:51:06;12.93;;;5.88;;
43118;SDS011;28729;49.838;8.650;2022-08-21T07:55:16;10.15;;;6.28;;
43118;SDS011;28729;49.838;8.650;2022-08-21T07:59:20;11.20;;;5.47;;
43118;SDS011;28729;49.838;8.650;2022-08-21T08:03:22;12.45;;;5.30;;
43118;SDS011;28729;49.838;8.650;2022-08-21T08:07:29;10.85;;;6.20;;
43118;SDS011;28729;49.838;8.650;2022-08-21T08:11:31;11.90;;;6.63;;
43118;SDS011;28729;49.838;8.650;2022-08-21T08:15:32;10.38;;;6.07;;
43118;SDS011;28729;49.838;8.650;2022-08-21T08:19:37;10.48;;;5.35;;
43118;SDS011;28729;49.838;8.650;2022-08-21T08:23:40;9.90;;;6.20;;
43118;SDS011;28729;49.838;8.650;2022-08-21T08:27:42;11.38;;;6.10;;
43118;SDS011;28729;49.838;8.650;2022-08-21T08:31:43;10.63;;;5.40;;
43118;SDS011;28729;49.838;8.650;2022-08-21T08:35:46;12.07;;;5.90;;
43118;SDS011;28729;49.838;8.650;2022-08-21T08:39:49;11.68;;;5.95;;
43118;SDS011;28729;49.838;8.650;2022-08-21T08:43:53;11.13;;;6.70;;
43118;SDS011;28729;49.838;8.650;2022-08-21T08:48:03;9.82;;;5.80;;
43118;SDS011;28729;49.838;8.650;2022-08-21T08:52:27;11.07;;;6.22;;
43118;SDS011;28729;49.838;8.650;2022-08-21T08:56:32;9.95;;;5.93;;
43118;SDS011;28729;49.838;8.650;2022-08-21T09:00:35;9.30;;;5.78;;
43118;SDS011;28729;49.838;8.650;2022-08-21T09:04:39;9.05;;;5.10;;
43118;SDS011;28729;49.838;8.650;2022-08-21T09:08:54;8.73;;;5.10;;
43118;SDS011;28729;49.838;8.650;2022-08-21T09:17:40;8.18;;;4.22;;
43118;SDS011;28729;49.838;8.650;2022-08-21T09:22:01;11.00;;;5.50;;
43118;SDS011;28729;49.838;8.650;2022-08-21T09:26:07;9.85;;;5.18;;
43118;SDS011;28729;49.838;8.650;2022-08-21T09:30:13;8.98;;;4.65;;
43118;SDS011;28729;49.838;8.650;2022-08-21T09:34:24;10.40;;;4.13;;
43118;SDS011;28729;49.838;8.650;2022-08-21T09:38:32;8.30;;;4.40;;
43118;SDS011;28729;49.838;8.650;2022-08-21T09:42:37;8.15;;;4.68;;
43118;SDS011;28729;49.838;8.650;2022-08-21T09:46:49;7.05;;;4.63;;
43118;SDS011;28729;49.838;8.650;2022-08-21T09:50:52;13.23;;;4.80;;
43118;SDS011;28729;49.838;8.650;2022-08-21T09:54:55;10.23;;;4.55;;
43118;SDS011;28729;49.838;8.650;2022-08-21T09:58:57;9.60;;;4.07;;
43118;SDS011;28729;49.838;8.650;2022-08-21T10:07:15;8.73;;;3.55;;
43118;SDS011;28729;49.838;8.650;2022-08-21T10:11:16;8.83;;;4.20;;
43118;SDS011;28729;49.838;8.650;2022-08-21T10:20:11;10.18;;;3.70;;
43118;SDS011;28729;49.838;8.650;2022-08-21T10:24:23;7.50;;;3.05;;
43118;SDS011;28729;49.838;8.650;2022-08-21T10:37:41;7.50;;;3.28;;
43118;SDS011;28729;49.838;8.650;2022-08-21T10:50:32;6.65;;;3.33;;
43118;SDS011;28729;49.838;8.650;2022-08-21T10:54:45;6.80;;;3.33;;
43118;SDS011;28729;49.838;8.650;2022-08-21T11:03:15;9.57;;;3.35;;
43118;SDS011;28729;49.838;8.650;2022-08-21T11:07:38;7.88;;;3.60;;
43118;SDS011;28729;49.838;8.650;2022-08-21T11:16:42;9.50;;;3.28;;
43118;SDS011;28729;49.838;8.650;2022-08-21T11:25:11;4.85;;;3.50;;
43118;SDS011;28729;49.838;8.650;2022-08-21T11:29:38;7.22;;;3.30;;
43118;SDS011;28729;49.838;8.650;2022-08-21T11:38:12;7.50;;;3.42;;
43118;SDS011;28729;49.838;8.650;2022-08-21T11:42:28;8.18;;;3.50;;
43118;SDS011;28729;49.838;8.650;2022-08-21T11:46:44;6.13;;;3.28;;
43118;SDS011;28729;49.838;8.650;2022-08-21T11:50:53;9.65;;;3.70;;
43118;SDS011;28729;49.838;8.650;2022-08-21T11:55:19;9.77;;;3.45;;
43118;SDS011;28729;49.838;8.650;2022-08-21T11:59:41;7.07;;;3.55;;
43118;SDS011;28729;49.838;8.650;2022-08-21T12:03:54;9.68;;;3.13;;
43118;SDS011;28729;49.838;8.650;2022-08-21T12:08:00;6.72;;;3.47;;
43118;SDS011;28729;49.838;8.650;2022-08-21T12:16:33;4.72;;;3.10;;
43118;SDS011;28729;49.838;8.650;2022-08-21T12:20:40;4.65;;;3.38;;
43118;SDS011;28729;49.838;8.650;2022-08-21T12:24:51;6.18;;;3.58;;
43118;SDS011;28729;49.838;8.650;2022-08-21T12:29:10;5.75;;;3.63;;
43118;SDS011;28729;49.838;8.650;2022-08-21T12:41:45;7.82;;;3.50;;
43118;SDS011;28729;49.838;8.650;2022-08-21T12:45:50;5.90;;;3.72;;
43118;SDS011;28729;49.838;8.650;2022-08-21T12:54:08;7.03;;;3.05;;
43118;SDS011;28729;49.838;8.650;2022-08-21T12:58:20;6.28;;;3.22;;
43118;SDS011;28729;49.838;8.650;2022-08-21T13:02:25;5.82;;;3.20;;
43118;SDS011;28729;49.838;8.650;2022-08-21T13:06:37;7.40;;;3.22;;
43118;SDS011;28729;49.838;8.650;2022-08-21T13:10:42;7.55;;;3.80;;
43118;SDS011;28729;49.838;8.650;2022-08-21T13:14:46;7.85;;;3.15;;
43118;SDS011;28729;49.838;8.650;2022-08-21T13:18:53;6.47;;;2.90;;
43118;SDS011;28729;49.838;8.650;2022-08-21T13:22:57;5.20;;;3.20;;
43118;SDS011;28729;49.838;8.650;2022-08-21T13:27:01;6.18;;;3.20;;
43118;SDS011;28729;49.838;8.650;2022-08-21T13:31:05;5.68;;;2.83;;
43118;SDS011;28729;49.838;8.650;2022-08-21T13:35:11;5.38;;;3.03;;
43118;SDS011;28729;49.838;8.650;2022-08-21T13:39:16;5.70;;;2.85;;
43118;SDS011;28729;49.838;8.650;2022-08-21T13:43:21;5.20;;;2.90;;
43118;SDS011;28729;49.838;8.650;2022-08-21T13:47:28;6.93;;;3.10;;
43118;SDS011;28729;49.838;8.650;2022-08-21T13:51:30;6.78;;;3.13;;
43118;SDS011;28729;49.838;8.650;2022-08-21T13:55:34;7.10;;;3.30;;
43118;SDS011;28729;49.838;8.650;2022-08-21T13:59:40;7.65;;;3.13;;
43118;SDS011;28729;49.838;8.650;2022-08-21T14:03:43;7.45;;;2.90;;
43118;SDS011;28729;49.838;8.650;2022-08-21T14:07:47;6.70;;;3.60;;
43118;SDS011;28729;49.838;8.650;2022-08-21T14:11:53;9.57;;;3.50;;
43118;SDS011;28729;49.838;8.650;2022-08-21T14:15:58;6.20;;;3.08;;
43118;SDS011;28729;49.838;8.650;2022-08-21T14:20:01;9.43;;;3.00;;
43118;SDS011;28729;49.838;8.650;2022-08-21T14:24:12;7.05;;;2.78;;
43118;SDS011;28729;49.838;8.650;2022-08-21T14:28:23;4.97;;;2.75;;
43118;SDS011;28729;49.838;8.650;2022-08-21T14:32:30;6.63;;;2.90;;
43118;SDS011;28729;49.838;8.650;2022-08-21T14:36:46;8.35;;;2.85;;
43118;SDS011;28729;49.838;8.650;2022-08-21T14:40:50;8.48;;;2.90;;
43118;SDS011;28729;49.838;8.650;2022-08-21T14:44:53;7.05;;;2.83;;
43118;SDS011;28729;49.838;8.650;2022-08-21T14:48:59;7.50;;;2.40;;
43118;SDS011;28729;49.838;8.650;2022-08-21T14:53:01;7.22;;;2.40;;
43118;SDS011;28729;49.838;8.650;2022-08-21T14:57:11;5.35;;;2.50;;
43118;SDS011;28729;49.838;8.650;2022-08-21T15:01:14;8.27;;;2.80;;
43118;SDS011;28729;49.838;8.650;2022-08-21T15:05:18;6.50;;;2.63;;
43118;SDS011;28729;49.838;8.650;2022-08-21T15:09:33;6.15;;;2.40;;
43118;SDS011;28729;49.838;8.650;2022-08-21T15:13:35;4.57;;;2.45;;
43118;SDS011;28729;49.838;8.650;2022-08-21T15:17:37;5.95;;;2.40;;
43118;SDS011;28729;49.838;8.650;2022-08-21T15:21:39;6.63;;;2.47;;
43118;SDS011;28729;49.838;8.650;2022-08-21T15:25:42;4.95;;;2.22;;
43118;SDS011;28729;49.838;8.650;2022-08-21T15:29:45;5.07;;;2.58;;
43118;SDS011;28729;49.838;8.650;2022-08-21T15:33:47;4.75;;;2.00;;
43118;SDS011;28729;49.838;8.650;2022-08-21T15:37:48;5.03;;;2.20;;
43118;SDS011;28729;49.838;8.650;2022-08-21T15:41:50;4.53;;;2.05;;
43118;SDS011;28729;49.838;8.650;2022-08-21T15:45:52;5.82;;;2.60;;
43118;SDS011;28729;49.838;8.650;2022-08-21T15:49:53;5.47;;;2.30;;
43118;SDS011;28729;49.838;8.650;2022-08-21T15:53:55;7.18;;;2.35;;
43118;SDS011;28729;49.838;8.650;2022-08-21T15:57:56;5.32;;;2.25;;
43118;SDS011;28729;49.838;8.650;2022-08-21T16:02:03;4.15;;;2.70;;
43118;SDS011;28729;49.838;8.650;2022-08-21T16:06:05;5.07;;;2.10;;
43118;SDS011;28729;49.838;8.650;2022-08-21T16:10:07;4.18;;;2.60;;
43118;SDS011;28729;49.838;8.650;2022-08-21T16:18:12;5.43;;;1.90;;
43118;SDS011;28729;49.838;8.650;2022-08-21T16:22:14;5.47;;;2.13;;
43118;SDS011;28729;49.838;8.650;2022-08-21T16:26:15;4.38;;;2.38;;
43118;SDS011;28729;49.838;8.650;2022-08-21T16:30:19;7.05;;;2.53;;
43118;SDS011;28729;49.838;8.650;2022-08-21T16:34:21;6.07;;;2.40;;
43118;SDS011;28729;49.838;8.650;2022-08-21T16:38:23;5.05;;;2.13;;
43118;SDS011;28729;49.838;8.650;2022-08-21T16:42:25;8.02;;;2.35;;
43118;SDS011;28729;49.838;8.650;2022-08-21T16:46:28;5.50;;;2.40;;
43118;SDS011;28729;49.838;8.650;2022-08-21T16:50:33;6.07;;;2.33;;
43118;SDS011;28729;49.838;8.650;2022-08-21T16:54:34;7.10;;;2.33;;
43118;SDS011;28729;49.838;8.650;2022-08-21T16:58:37;5.63;;;2.93;;
43118;SDS011;28729;49.838;8.650;2022-08-21T17:02:46;6.95;;;2.25;;
43118;SDS011;28729;49.838;8.650;2022-08-21T17:06:49;5.07;;;2.50;;
43118;SDS011;28729;49.838;8.650;2022-08-21T17:10:52;6.90;;;2.88;;
43118;SDS011;28729;49.838;8.650;2022-08-21T17:14:55;4.60;;;2.15;;
43118;SDS011;28729;49.838;8.650;2022-08-21T17:19:01;5.22;;;2.42;;
43118;SDS011;28729;49.838;8.650;2022-08-21T17:23:03;5.90;;;2.87;;
43118;SDS011;28729;49.838;8.650;2022-08-21T17:27:05;6.33;;;3.37;;
43118;SDS011;28729;49.838;8.650;2022-08-21T17:31:08;8.20;;;3.67;;
43118;SDS011;28729;49.838;8.650;2022-08-21T17:35:11;4.70;;;2.92;;
43118;SDS011;28729;49.838;8.650;2022-08-21T17:39:14;5.00;;;2.50;;
43118;SDS011;28729;49.838;8.650;2022-08-21T17:47:28;6.78;;;3.42;;
43118;SDS011;28729;49.838;8.650;2022-08-21T17:51:29;7.47;;;3.27;;
43118;SDS011;28729;49.838;8.650;2022-08-21T17:55:33;6.72;;;3.08;;
43118;SDS011;28729;49.838;8.650;2022-08-21T17:59:35;12.27;;;5.40;;
43118;SDS011;28729;49.838;8.650;2022-08-21T18:03:37;11.02;;;4.47;;
43118;SDS011;28729;49.838;8.650;2022-08-21T18:07:39;8.10;;;4.00;;
43118;SDS011;28729;49.838;8.650;2022-08-21T18:11:41;9.02;;;4.32;;
43118;SDS011;28729;49.838;8.650;2022-08-21T18:15:45;6.97;;;3.08;;
43118;SDS011;28729;49.838;8.650;2022-08-21T18:19:49;6.60;;;3.20;;
43118;SDS011;28729;49.838;8.650;2022-08-21T18:23:51;5.63;;;2.85;;
43118;SDS011;28729;49.838;8.650;2022-08-21T18:27:55;8.85;;;3.67;;
43118;SDS011;28729;49.838;8.650;2022-08-21T18:31:57;13.25;;;7.32;;
43118;SDS011;28729;49.838;8.650;2022-08-21T18:35:59;13.80;;;6.15;;
43118;SDS011;28729;49.838;8.650;2022-08-21T18:40:05;13.23;;;5.95;;
43118;SDS011;28729;49.838;8.650;2022-08-21T18:44:09;7.15;;;3.50;;
43118;SDS011;28729;49.838;8.650;2022-08-21T18:48:13;9.15;;;3.08;;
43118;SDS011;28729;49.838;8.650;2022-08-21T18:52:18;7.18;;;3.00;;
43118;SDS011;28729;49.838;8.650;2022-08-21T18:56:20;6.90;;;2.72;;
43118;SDS011;28729;49.838;8.650;2022-08-21T19:00:27;7.15;;;3.45;;
43118;SDS011;28729;49.838;8.650;2022-08-21T19:04:34;5.43;;;2.58;;
43118;SDS011;28729;49.838;8.650;2022-08-21T19:08:45;6.50;;;2.53;;
43118;SDS011;28729;49.838;8.650;2022-08-21T19:12:47;5.50;;;2.33;;
43118;SDS011;28729;49.838;8.650;2022-08-21T19:16:49;6.07;;;2.58;;
43118;SDS011;28729;49.838;8.650;2022-08-21T19:20:51;4.05;;;2.30;;
43118;SDS011;28729;49.838;8.650;2022-08-21T19:24:53;7.47;;;2.40;;
43118;SDS011;28729;49.838;8.650;2022-08-21T19:28:57;6.35;;;2.60;;
43118;SDS011;28729;49.838;8.650;2022-08-21T19:33:02;6.05;;;2.70;;
43118;SDS011;28729;49.838;8.650;2022-08-21T19:37:04;5.63;;;2.15;;
43118;SDS011;28729;49.838;8.650;2022-08-21T19:41:08;4.80;;;2.28;;
43118;SDS011;28729;49.838;8.650;2022-08-21T19:45:13;4.88;;;2.65;;
43118;SDS011;28729;49.838;8.650;2022-08-21T19:49:15;6.87;;;2.67;;
43118;SDS011;28729;49.838;8.650;2022-08-21T19:53:22;5.95;;;2.60;;
43118;SDS011;28729;49.838;8.650;2022-08-21T19:57:23;5.85;;;2.22;;
43118;SDS011;28729;49.838;8.650;2022-08-21T20:01:25;3.92;;;2.10;;
43118;SDS011;28729;49.838;8.650;2022-08-21T20:05:27;6.55;;;2.58;;
43118;SDS011;28729;49.838;8.650;2022-08-21T20:09:40;4.85;;;2.65;;
43118;SDS011;28729;49.838;8.650;2022-08-21T20:13:41;7.47;;;2.92;;
43118;SDS011;28729;49.838;8.650;2022-08-21T20:17:44;5.57;;;2.33;;
43118;SDS011;28729;49.838;8.650;2022-08-21T20:21:45;6.53;;;2.25;;
43118;SDS011;28729;49.838;8.650;2022-08-21T20:25:47;4.38;;;2.72;;
43118;SDS011;28729;49.838;8.650;2022-08-21T20:29:50;6.28;;;2.95;;
43118;SDS011;28729;49.838;8.650;2022-08-21T20:33:52;6.90;;;2.57;;
43118;SDS011;28729;49.838;8.650;2022-08-21T20:37:54;4.27;;;2.70;;
43118;SDS011;28729;49.838;8.650;2022-08-21T20:41:59;5.03;;;2.88;;
43118;SDS011;28729;49.838;8.650;2022-08-21T20:46:01;6.10;;;2.73;;
43118;SDS011;28729;49.838;8.650;2022-08-21T20:50:08;5.30;;;3.05;;
43118;SDS011;28729;49.838;8.650;2022-08-21T20:54:32;7.75;;;2.83;;
43118;SDS011;28729;49.838;8.650;2022-08-21T20:58:42;5.88;;;2.83;;
43118;SDS011;28729;49.838;8.650;2022-08-21T21:06:54;9.32;;;3.22;;
43118;SDS011;28729;49.838;8.650;2022-08-21T21:11:21;6.90;;;2.58;;
43118;SDS011;28729;49.838;8.650;2022-08-21T21:15:27;6.22;;;2.80;;
43118;SDS011;28729;49.838;8.650;2022-08-21T21:19:38;4.75;;;2.60;;
43118;SDS011;28729;49.838;8.650;2022-08-21T21:27:54;8.30;;;3.20;;
43118;SDS011;28729;49.838;8.650;2022-08-21T21:32:04;8.18;;;2.78;;
43118;SDS011;28729;49.838;8.650;2022-08-21T21:36:08;7.50;;;2.77;;
43118;SDS011;28729;49.838;8.650;2022-08-21T21:40:34;6.50;;;2.45;;
43118;SDS011;28729;49.838;8.650;2022-08-21T22:15:55;7.53;;;3.95;;
43118;SDS011;28729;49.838;8.650;2022-08-21T22:19:58;5.65;;;3.05;;
43118;SDS011;28729;49.838;8.650;2022-08-21T22:24:12;4.15;;;2.30;;
43118;SDS011;28729;49.838;8.650;2022-08-21T22:28:20;7.35;;;2.22;;
43118;SDS011;28729;49.838;8.650;2022-08-21T22:32:39;6.40;;;2.00;;
43118;SDS011;28729;49.838;8.650;2022-08-21T22:36:48;4.30;;;2.35;;
43118;SDS011;28729;49.838;8.650;2022-08-21T22:41:14;6.18;;;2.10;;
43118;SDS011;28729;49.838;8.650;2022-08-21T22:45:19;5.55;;;2.20;;
43118;SDS011;28729;49.838;8.650;2022-08-21T22:49:31;3.95;;;2.00;;
43118;SDS011;28729;49.838;8.650;2022-08-21T22:57:41;5.13;;;1.77;;
43118;SDS011;28729;49.838;8.650;2022-08-21T23:01:43;2.95;;;1.85;;
43118;SDS011;28729;49.838;8.650;2022-08-21T23:05:45;5.57;;;2.10;;
43118;SDS011;28729;49.838;8.650;2022-08-21T23:09:47;6.10;;;2.17;;
43118;SDS011;28729;49.838;8.650;2022-08-21T23:13:53;8.48;;;2.53;;
43118;SDS011;28729;49.838;8.650;2022-08-21T23:22:34;4.72;;;1.85;;
43118;SDS011;28729;49.838;8.650;2022-08-21T23:26:46;3.28;;;1.80;;
43118;SDS011;28729;49.838;8.650;2022-08-21T23:31:22;5.80;;;2.20;;
43118;SDS011;28729;49.838;8.650;2022-08-21T23:35:51;3.72;;;2.03;;
43118;SDS011;28729;49.838;8.650;2022-08-21T23:40:34;5.63;;;1.73;;
43118;SDS011;28729;49.838;8.650;2022-08-21T23:58:26;3.63;;;2.10;;
